Time;durP1;ratioP1;P1;durP2;ratioP2;P2;SDS_P1;SDS_P2;PMS_P1;PMS_P2;Temp;Humidity;BMP_temperature;BMP_pressure;BME280_temperature;BME280_humidity;BME280_pressure;Samples;Min_cycle;Max_cycle;Signal;HPM_P1;HPM_P2
2022/07/20 00:00:05;;;;;;;6.53;3.17;;;24.40;61.80;;;23.24;49.75;100299.38;5070562;28;20079;-81
2022/07/20 00:02:37;;;;;;;7.28;2.90;;;24.40;60.80;;;23.27;51.03;100300.78;5071215;28;20059;-81
2022/07/20 00:05:05;;;;;;;4.93;2.70;;;24.40;60.70;;;23.28;49.67;100300.50;5071105;28;20044;-81
2022/07/20 00:07:33;;;;;;;7.43;2.92;;;24.40;60.30;;;23.28;50.77;100294.94;5071328;28;20378;-81
2022/07/20 00:12:46;;;;;;;6.90;2.90;;;24.40;58.80;;;23.39;47.65;100293.00;5067963;28;20055;-80
2022/07/20 00:15:13;;;;;;;5.72;2.83;;;24.40;58.00;;;23.42;46.61;100295.25;5071140;28;20132;-81
2022/07/20 00:17:41;;;;;;;6.38;2.60;;;24.40;57.80;;;23.43;46.79;100292.19;5071170;28;20044;-81
2022/07/20 00:20:09;;;;;;;7.50;3.30;;;24.50;58.00;;;23.48;45.06;100294.16;5070297;28;20040;-81
2022/07/20 00:22:38;;;;;;;6.35;2.92;;;24.50;57.50;;;23.53;45.13;100290.53;5070682;28;20051;-81
2022/07/20 00:25:07;;;;;;;6.55;3.05;;;24.40;57.10;;;23.59;43.54;100286.66;5070787;28;20044;-81
2022/07/20 00:27:35;;;;;;;8.60;3.00;;;24.50;56.50;;;23.58;46.06;100288.59;5070893;28;20408;-81
2022/07/20 00:30:03;;;;;;;5.97;2.97;;;24.50;57.60;;;23.56;45.45;100295.53;5070004;28;20523;-81
2022/07/20 00:32:30;;;;;;;7.43;2.83;;;24.50;57.20;;;23.58;44.89;100285.81;5069618;28;20032;-81
2022/07/20 00:34:57;;;;;;;4.72;2.70;;;24.40;57.20;;;23.61;44.02;100276.09;5070521;28;20047;-81
2022/07/20 00:37:24;;;;;;;5.15;2.78;;;24.50;56.50;;;23.64;43.65;100283.88;5070664;28;20127;-81
2022/07/20 00:39:51;;;;;;;7.07;3.25;;;24.50;56.20;;;23.60;46.14;100282.75;5069848;28;20044;-81
2022/07/20 00:42:20;;;;;;;5.82;2.60;;;24.50;56.70;;;23.58;44.95;100284.97;5070577;28;20055;-81
2022/07/20 00:44:47;;;;;;;7.15;3.40;;;24.50;57.00;;;23.54;45.67;100273.59;5070476;28;20037;-81
2022/07/20 00:47:14;;;;;;;10.88;3.17;;;24.50;57.50;;;23.48;46.72;100283.03;5070599;28;20163;-80
2022/07/20 00:49:41;;;;;;;7.40;2.90;;;24.50;57.90;;;23.43;47.39;100281.06;5069597;28;20762;-81
2022/07/20 00:52:09;;;;;;;7.57;3.00;;;24.50;58.40;;;23.42;47.79;100279.41;5070512;28;20041;-81
2022/07/20 00:54:37;;;;;;;6.63;3.35;;;24.40;57.90;;;23.40;48.21;100269.69;5070360;28;20489;-80
2022/07/20 00:57:04;;;;;;;5.18;2.72;;;24.50;58.50;;;23.36;47.43;100272.19;5070327;28;20786;-80
2022/07/20 00:59:33;;;;;;;6.28;2.95;;;24.40;58.90;;;23.43;45.59;100269.97;5069395;28;20074;-81
2022/07/20 01:02:00;;;;;;;4.63;2.85;;;24.40;57.50;;;23.49;45.27;100264.41;5069930;28;20079;-81
2022/07/20 01:04:27;;;;;;;6.43;3.00;;;24.50;56.90;;;23.55;44.42;100260.53;5069946;28;20051;-81
2022/07/20 01:06:54;;;;;;;6.95;3.08;;;24.50;56.60;;;23.57;44.17;100255.53;5070102;28;20044;-80
2022/07/20 01:09:22;;;;;;;7.63;3.20;;;24.50;56.30;;;23.57;44.88;100252.75;5069291;28;20489;-81
2022/07/20 01:11:49;;;;;;;6.85;3.13;;;24.50;56.10;;;23.55;44.17;100255.81;5070075;28;20098;-81
2022/07/20 01:14:16;;;;;;;5.60;2.88;;;24.40;56.00;;;23.57;43.21;100253.59;5070059;28;20040;-81
2022/07/20 01:16:45;;;;;;;5.70;3.00;;;24.50;55.70;;;23.59;43.95;100247.75;5069952;28;20044;-81
2022/07/20 01:19:12;;;;;;;8.43;3.00;;;24.50;55.90;;;23.58;44.53;100252.47;5069352;28;20060;-81
2022/07/20 01:21:41;;;;;;;9.90;3.30;;;24.40;56.70;;;23.56;44.34;100245.53;5069894;28;20044;-81
2022/07/20 01:24:10;;;;;;;7.07;2.97;;;24.40;56.80;;;23.56;44.66;100239.97;5069982;28;20068;-81
2022/07/20 01:26:38;;;;;;;7.60;3.13;;;24.50;56.00;;;23.52;44.29;100238.88;5070003;28;20519;-81
2022/07/20 01:29:05;;;;;;;5.05;2.95;;;24.50;56.30;;;23.49;46.65;100231.91;5068934;28;20044;-81
2022/07/20 01:31:32;;;;;;;7.30;3.20;;;24.50;57.30;;;23.36;46.94;100236.09;5069816;28;20072;-81
2022/07/20 01:34:00;;;;;;;4.97;3.10;;;24.40;57.80;;;23.35;46.10;100239.13;5069653;28;20049;-80
2022/07/20 01:36:27;;;;;;;5.03;2.55;;;24.40;57.80;;;23.34;46.14;100232.75;5069741;28;20091;-81
2022/07/20 01:38:55;;;;;;;7.30;2.90;;;24.40;58.10;;;23.25;47.35;100236.34;5068936;28;20047;-80
2022/07/20 01:41:23;;;;;;;8.85;3.25;;;24.40;58.70;;;23.13;48.14;100231.06;5069560;28;20044;-81
2022/07/20 01:43:50;;;;;;;7.95;3.17;;;24.40;59.20;;;22.96;46.72;100234.91;5069252;28;20132;-81
2022/07/20 01:46:17;;;;;;;7.93;3.17;;;24.30;58.40;;;22.82;47.92;100230.97;5069791;28;20044;-81
2022/07/20 01:48:45;;;;;;;5.25;3.13;;;24.30;59.10;;;22.63;49.37;100234.22;5068999;28;20051;-81
2022/07/20 01:51:12;;;;;;;7.35;3.33;;;24.30;59.60;;;22.49;49.63;100233.06;5069620;28;20047;-81
2022/07/20 01:53:39;;;;;;;6.55;3.40;;;24.20;60.10;;;22.39;51.18;100233.00;5069707;28;20041;-80
2022/07/20 01:56:08;;;;;;;8.55;3.58;;;24.20;60.90;;;22.22;52.15;100239.56;5069586;28;20059;-81
2022/07/20 01:58:35;;;;;;;6.95;3.30;;;24.20;61.70;;;22.15;53.18;100233.41;5069371;28;20078;-81
2022/07/20 02:01:03;;;;;;;6.28;3.30;;;24.10;62.50;;;22.10;53.69;100236.16;5069525;28;20404;-81
2022/07/20 02:03:30;;;;;;;7.45;3.50;;;24.10;63.40;;;22.03;53.78;100230.03;5069366;28;20045;-81
2022/07/20 02:05:57;;;;;;;6.80;3.03;;;24.00;63.50;;;21.94;53.97;100232.47;5069420;28;20477;-81
2022/07/20 02:08:25;;;;;;;8.65;3.45;;;23.90;63.70;;;21.94;54.82;100226.09;5068587;28;20115;-81
2022/07/20 02:10:52;;;;;;;7.70;3.30;;;23.90;64.40;;;21.82;55.50;100224.34;5069256;28;20048;-81
2022/07/20 02:13:21;;;;;;;5.30;3.20;;;23.80;64.80;;;21.74;56.45;100233.19;5067104;28;20045;-80
2022/07/20 02:18:33;;;;;;;9.57;3.28;;;23.80;65.80;;;21.60;56.49;100226.41;5050566;28;20674;-80
2022/07/20 02:21:00;;;;;;;6.28;3.38;;;23.70;65.60;;;21.55;57.06;100223.59;5069400;28;20052;-80
2022/07/20 02:23:27;;;;;;;11.77;3.28;;;23.70;66.40;;;21.48;57.55;100226.59;5069327;28;20121;-81
2022/07/20 02:25:54;;;;;;;6.70;3.28;;;23.70;66.40;;;21.43;57.13;100221.81;5069391;28;20581;-80
2022/07/20 02:28:23;;;;;;;8.45;3.80;;;23.60;66.50;;;21.38;57.76;100226.47;5068190;28;20049;-80
2022/07/20 02:30:50;;;;;;;7.25;3.28;;;23.60;66.60;;;21.28;58.04;100218.91;5069264;28;20075;-81
2022/07/20 02:33:17;;;;;;;9.30;3.53;;;23.60;66.90;;;21.21;59.29;100223.81;5069301;28;20037;-80
2022/07/20 02:35:44;;;;;;;7.55;3.47;;;23.50;67.90;;;21.15;59.04;100224.88;5069178;28;20040;-81
2022/07/20 02:38:12;;;;;;;5.53;3.10;;;23.50;67.80;;;21.22;58.31;100223.56;5068870;28;20044;-80
2022/07/20 02:40:39;;;;;;;6.68;3.42;;;23.40;67.30;;;21.17;59.34;100222.69;5068538;28;20244;-80
2022/07/20 02:43:06;;;;;;;9.57;3.45;;;23.40;67.90;;;21.15;58.21;100224.88;5068974;28;20040;-81
2022/07/20 02:45:35;;;;;;;7.03;3.28;;;23.40;67.20;;;21.14;58.17;100235.13;5068960;28;20119;-80
2022/07/20 02:48:03;;;;;;;6.10;3.78;;;23.40;67.40;;;21.17;58.47;100222.69;5069122;28;20051;-80
2022/07/20 02:50:33;;;;;;;6.07;3.40;;;23.30;67.60;;;21.15;58.08;100224.88;5068188;28;20501;-80
2022/07/20 02:53:01;;;;;;;5.50;3.28;;;23.30;67.20;;;21.14;58.08;100223.22;5069131;28;20051;-80
2022/07/20 02:55:28;;;;;;;8.07;3.40;;;23.30;67.50;;;21.12;57.77;100226.25;5070010;28;20072;-81
2022/07/20 02:57:58;;;;;;;5.75;3.25;;;23.30;67.10;;;21.07;58.63;100232.53;5072639;28;20050;-80
2022/07/20 03:00:26;;;;;;;7.35;3.10;;;23.30;68.00;;;21.10;58.79;100231.19;5071897;28;20040;-80
2022/07/20 03:02:55;;;;;;;8.25;3.10;;;23.20;67.70;;;21.10;58.18;100225.66;5072410;28;20032;-81
2022/07/20 03:05:22;;;;;;;6.38;3.63;;;23.20;67.50;;;21.09;58.15;100218.44;5072354;28;20051;-80
2022/07/20 03:07:49;;;;;;;5.95;3.40;;;23.20;67.50;;;21.09;57.89;100222.06;5072463;28;20162;-81
2022/07/20 03:10:17;;;;;;;6.35;3.17;;;23.20;67.60;;;21.16;57.17;100219.06;5071852;28;20048;-80
2022/07/20 03:12:44;;;;;;;6.60;3.40;;;23.20;67.00;;;21.23;56.94;100227.19;5072240;28;20124;-81
2022/07/20 03:15:13;;;;;;;6.28;3.58;;;23.20;66.70;;;21.26;57.55;100218.34;5072118;28;20054;-80
2022/07/20 03:17:45;;;;;;;5.90;3.20;;;23.20;66.80;;;21.28;56.67;100218.91;5072154;28;20048;-81
2022/07/20 03:20:20;;;;;;;9.13;3.95;;;23.20;66.80;;;21.33;56.20;100213.41;5071388;28;20045;-80
2022/07/20 03:22:47;;;;;;;6.38;3.28;;;23.20;66.20;;;21.35;56.37;100213.16;5072188;28;20485;-80
2022/07/20 03:25:14;;;;;;;11.15;3.55;;;23.20;66.60;;;21.46;55.83;100215.78;5072209;28;20048;-80
2022/07/20 03:27:41;;;;;;;8.57;3.33;;;23.20;66.20;;;21.69;52.04;100201.84;5072141;28;20051;-81
2022/07/20 03:30:10;;;;;;;9.80;3.88;;;23.20;62.60;;;22.06;48.02;100212.84;5071198;28;20124;-80
2022/07/20 03:32:37;;;;;;;5.95;3.15;;;23.30;60.00;;;22.26;48.91;100217.72;5072161;28;20043;-81
2022/07/20 03:35:06;;;;;;;6.05;3.50;;;23.30;60.70;;;22.28;49.93;100214.69;5071939;28;20037;-80
2022/07/20 03:37:35;;;;;;;8.77;3.35;;;23.40;61.70;;;22.41;47.95;100209.47;5071987;28;20036;-80
2022/07/20 03:40:04;;;;;;;7.60;3.45;;;23.40;60.10;;;22.46;47.85;100214.19;5070845;28;20045;-80
2022/07/20 03:42:31;;;;;;;7.55;3.70;;;23.40;60.20;;;22.47;48.52;100224.19;5071531;28;20493;-81
2022/07/20 03:44:59;;;;;;;8.40;3.35;;;23.50;60.80;;;22.70;46.42;100225.66;5071629;28;20087;-80
2022/07/20 03:47:26;;;;;;;6.15;3.05;;;23.60;59.10;;;22.87;47.06;100233.75;5071635;28;20064;-80
2022/07/20 03:49:54;;;;;;;9.32;3.20;;;23.60;59.50;;;22.89;46.47;100247.38;5070768;28;20044;-80
2022/07/20 03:52:21;;;;;;;6.97;3.72;;;23.70;59.30;;;22.89;46.89;100264.84;5071621;28;20131;-81
2022/07/20 03:54:50;;;;;;;9.55;3.65;;;23.70;59.70;;;22.97;46.66;100275.41;5071520;28;20037;-81
2022/07/20 03:57:17;;;;;;;9.23;3.33;;;23.70;59.70;;;22.96;47.74;100262.66;5071620;28;20433;-80
2022/07/20 03:59:46;;;;;;;9.90;3.97;;;23.70;60.30;;;22.97;47.59;100267.06;5070757;28;20127;-81
2022/07/20 04:02:13;;;;;;;6.60;3.00;;;23.70;60.30;;;22.91;48.22;100265.41;5053454;28;20067;-81
2022/07/20 04:04:40;;;;;;;9.27;3.40;;;23.70;60.40;;;22.87;49.79;100271.78;5071333;28;20512;-81
2022/07/20 04:07:09;;;;;;;6.78;3.13;;;23.70;61.60;;;22.80;50.78;100269.25;5071244;28;20639;-80
2022/07/20 04:09:46;;;;;;;7.93;3.45;;;23.70;62.50;;;22.72;52.74;100275.31;5067047;28;20590;-81
2022/07/20 04:12:18;;;;;;;7.95;3.20;;;23.80;64.10;;;22.77;51.39;100269.78;5071255;28;20068;-81
2022/07/20 04:14:47;;;;;;;5.78;3.15;;;23.80;62.60;;;22.79;52.20;100276.75;5071228;28;20064;-80
2022/07/20 04:17:14;;;;;;;5.97;3.33;;;23.80;63.40;;;22.85;51.96;100274.81;5071115;28;20041;-81
2022/07/20 04:19:41;;;;;;;7.25;3.13;;;23.80;63.20;;;22.89;52.07;100280.66;5070245;28;20147;-81
2022/07/20 04:22:09;;;;;;;11.50;3.15;;;23.80;63.50;;;22.91;52.46;100282.06;5070911;28;20036;-81
2022/07/20 04:24:37;;;;;;;7.88;3.47;;;23.80;64.90;;;22.93;52.14;100282.59;5070844;28;20119;-80
2022/07/20 04:27:05;;;;;;;6.72;3.45;;;23.80;64.60;;;23.04;49.91;100289.06;5071001;28;20044;-81
2022/07/20 04:29:34;;;;;;;12.07;3.20;;;23.80;63.10;;;23.25;48.16;100301.06;5069815;28;20515;-81
2022/07/20 04:32:01;;;;;;;7.57;3.70;;;23.80;61.30;;;23.33;47.78;100303.28;5050974;28;20040;-80
2022/07/20 04:34:29;;;;;;;7.28;3.28;;;23.90;60.90;;;23.38;49.14;100310.78;5050793;28;20041;-81
2022/07/20 04:36:56;;;;;;;8.77;3.72;;;23.90;61.70;;;23.37;48.41;100318.28;5050903;28;20077;-81
2022/07/20 04:39:24;;;;;;;6.75;3.25;;;23.90;61.90;;;23.49;46.70;100319.97;5049974;28;20041;-81
2022/07/20 04:41:51;;;;;;;8.90;3.70;;;23.90;60.90;;;23.58;46.93;100321.09;5050606;28;20044;-80
2022/07/20 04:44:18;;;;;;;6.53;3.10;;;24.00;60.50;;;23.61;47.26;100328.88;5050557;28;20099;-80
2022/07/20 04:46:46;;;;;;;7.70;3.50;;;24.00;60.50;;;23.56;48.63;100323.31;5050490;28;20051;-81
2022/07/20 04:49:14;;;;;;;6.75;3.58;;;24.10;62.30;;;23.70;47.08;100335.53;5049600;28;20063;-80
2022/07/20 04:51:42;;;;;;;6.35;3.60;;;24.10;61.30;;;23.88;46.34;100319.47;5050533;28;20425;-81
2022/07/20 04:54:09;;;;;;;10.57;3.92;;;24.10;60.70;;;24.00;46.61;100334.75;5050329;28;20037;-80
2022/07/20 04:56:37;;;;;;;9.27;3.88;;;24.20;60.80;;;24.13;47.06;100333.34;5050370;28;20044;-81
2022/07/20 04:59:05;;;;;;;9.45;3.78;;;24.20;61.50;;;24.28;47.30;100340.03;5049649;28;20453;-80
2022/07/20 05:01:32;;;;;;;6.90;2.70;;;24.30;61.60;;;24.32;48.18;100352.25;5032323;28;20052;-81
2022/07/20 05:04:00;;;;;;;5.90;3.10;;;24.40;63.50;;;24.45;47.36;100354.44;5050114;28;20041;-80
2022/07/20 05:06:28;;;;;;;11.20;3.42;;;24.40;63.00;;;24.56;48.36;100356.13;5050431;28;20052;-80
2022/07/20 05:08:55;;;;;;;5.75;3.35;;;24.50;63.60;;;24.72;47.60;100372.78;5049545;28;20060;-80
2022/07/20 05:11:22;;;;;;;7.50;3.42;;;24.50;63.50;;;24.79;47.63;100362.19;5050039;28;20049;-80
2022/07/20 05:13:49;;;;;;;8.68;3.25;;;24.60;63.90;;;24.90;47.48;100369.41;5050050;28;20112;-81
2022/07/20 05:16:17;;;;;;;9.75;3.22;;;24.60;63.40;;;24.88;49.88;100366.03;5049938;28;20452;-81
2022/07/20 05:18:44;;;;;;;4.78;3.15;;;24.70;65.90;;;24.93;48.47;100374.38;5048753;28;20037;-80
2022/07/20 05:21:12;;;;;;;5.72;3.38;;;24.70;64.70;;;24.90;47.80;100388.88;5049854;28;20136;-81
2022/07/20 05:23:40;;;;;;;8.18;3.33;;;24.70;64.60;;;24.91;46.20;100400.84;5049664;28;20041;-81
2022/07/20 05:26:07;;;;;;;8.43;4.32;;;24.70;62.10;;;24.96;44.39;100415.59;5049862;28;20045;-81
2022/07/20 05:28:34;;;;;;;12.00;4.03;;;24.80;59.80;;;24.99;45.02;100408.59;5049052;28;20346;-81
2022/07/20 05:31:01;;;;;;;8.20;3.80;;;24.80;60.20;;;25.01;44.66;100413.91;5049821;28;20033;-81
2022/07/20 05:33:28;;;;;;;9.75;3.95;;;24.90;60.20;;;25.06;44.93;100411.09;5049872;28;20124;-81
2022/07/20 05:35:56;;;;;;;14.98;4.28;;;24.90;60.90;;;25.02;46.24;100426.69;5049919;28;20052;-81
2022/07/20 05:38:24;;;;;;;7.70;3.63;;;24.90;62.00;;;25.01;46.07;100430.59;5031101;28;20412;-81
2022/07/20 05:40:51;;;;;;;10.32;3.88;;;24.90;62.00;;;24.95;46.47;100441.75;5049759;28;20610;-81
2022/07/20 05:43:18;;;;;;;11.00;4.10;;;24.90;61.90;;;24.96;47.33;100451.78;5049624;28;20478;-81
2022/07/20 05:45:46;;;;;;;11.35;4.38;;;24.90;62.70;;;24.96;47.04;100449.00;5049640;28;20099;-81
2022/07/20 05:48:13;;;;;;;12.20;5.78;;;24.90;63.20;;;24.96;48.53;100446.22;5049315;28;20049;-80
2022/07/20 05:50:41;;;;;;;15.65;8.65;;;24.90;64.20;;;24.95;49.49;100461.22;5049110;28;20402;-81
2022/07/20 05:53:09;;;;;;;15.73;7.22;;;24.90;65.40;;;25.00;50.70;100451.19;5049583;28;20074;-80
2022/07/20 05:55:40;;;;;;;13.75;9.55;;;25.00;66.60;;;25.01;50.89;100448.13;5049484;28;20071;-81
2022/07/20 05:58:08;;;;;;;19.80;10.35;;;25.10;66.30;;;25.26;50.82;100458.38;5049480;28;20049;-81
2022/07/20 06:00:36;;;;;;;14.00;8.65;;;25.30;66.30;;;27.45;46.84;100464.50;5048954;28;20056;-81
2022/07/20 06:03:04;;;;;;;18.13;11.02;;;25.40;66.20;;;28.77;43.39;100459.97;5049621;28;20053;-81
2022/07/20 06:05:32;;;;;;;20.92;10.00;;;25.70;65.40;;;28.88;43.79;100457.81;5051892;28;20063;-81
2022/07/20 06:08:01;;;;;;;26.02;11.75;;;26.00;65.90;;;28.45;44.20;100462.47;5049537;28;20048;-81
2022/07/20 06:10:28;;;;;;;18.30;10.93;;;26.30;64.80;;;30.68;39.92;100455.50;5048865;28;20106;-81
2022/07/20 06:12:58;;;;;;;21.85;11.52;;;26.70;63.30;;;33.04;36.18;100453.00;5049529;28;20741;-81
2022/07/20 06:15:26;;;;;;;22.23;11.95;;;27.00;63.50;;;34.42;33.72;100466.56;5049414;28;20059;-81
2022/07/20 06:17:54;;;;;;;20.27;11.18;;;27.40;62.90;;;35.58;31.46;100458.84;5049434;28;20123;-81
2022/07/20 06:20:23;;;;;;;21.33;10.73;;;27.60;61.60;;;36.46;29.96;100461.13;5048462;28;20049;-81
2022/07/20 06:22:51;;;;;;;18.17;9.80;;;27.90;60.50;;;36.93;29.54;100457.53;5049186;28;20047;-86
2022/07/20 06:25:19;;;;;;;19.73;11.57;;;28.00;61.20;;;37.39;28.08;100461.94;5049073;28;20498;-85
2022/07/20 06:27:46;;;;;;;14.07;9.30;;;28.00;61.20;;;37.44;28.53;100471.00;5031175;28;20417;-81
2022/07/20 06:30:15;;;;;;;25.98;12.18;;;28.00;61.00;;;33.99;32.92;100476.22;5049008;28;20045;-82
2022/07/20 06:32:42;;;;;;;17.80;11.20;;;28.00;62.10;;;31.51;38.25;100487.81;5053090;28;20045;-81
2022/07/20 06:35:10;;;;;;;19.17;11.05;;;28.00;62.80;;;29.91;42.59;100499.50;5052922;28;20048;-81
2022/07/20 06:37:38;;;;;;;19.30;11.57;;;27.90;62.40;;;29.13;43.78;100495.75;5068112;28;20127;-81
2022/07/20 06:40:07;;;;;;;22.05;11.40;;;27.90;63.30;;;28.63;44.66;100496.34;5072247;28;20059;-81
2022/07/20 06:42:35;;;;;;;21.67;12.23;;;27.80;63.50;;;28.35;45.73;100506.59;5072979;28;20041;-81
2022/07/20 06:45:02;;;;;;;18.08;11.23;;;27.70;62.90;;;28.23;46.87;100512.66;5054802;28;20049;-81
2022/07/20 06:47:31;;;;;;;19.25;12.63;;;27.70;64.40;;;28.05;46.60;100512.34;5072880;28;20072;-81
2022/07/20 06:49:58;;;;;;;18.10;11.02;;;27.70;63.60;;;27.94;46.73;100516.44;5071860;28;20040;-81
2022/07/20 06:52:25;;;;;;;22.73;13.45;;;27.50;63.30;;;27.71;47.60;100511.69;5072760;28;20120;-81
2022/07/20 06:54:52;;;;;;;22.35;11.68;;;27.40;64.50;;;27.75;49.40;100524.78;5072618;28;20037;-81
2022/07/20 06:57:19;;;;;;;21.00;13.15;;;27.40;65.60;;;27.76;48.35;100525.59;5072639;28;20152;-81
2022/07/20 06:59:46;;;;;;;21.48;12.43;;;27.40;65.40;;;27.72;48.93;100521.75;5071700;28;20087;-81
2022/07/20 07:02:14;;;;;;;20.23;13.57;;;27.30;66.50;;;27.66;48.01;100537.75;5072566;28;20052;-82
2022/07/20 07:04:42;;;;;;;23.00;13.57;;;27.30;65.50;;;27.68;48.99;100543.88;5072344;28;20047;-81
2022/07/20 07:07:09;;;;;;;21.15;13.13;;;27.20;66.60;;;27.72;48.84;100546.91;5072503;28;20074;-81
2022/07/20 07:09:37;;;;;;;21.55;11.50;;;27.20;66.50;;;27.80;49.53;100544.28;5071723;28;20538;-81
2022/07/20 07:12:04;;;;;;;20.23;13.50;;;27.20;67.20;;;27.87;49.99;100549.50;5072524;28;20050;-81
2022/07/20 07:14:32;;;;;;;24.63;13.45;;;27.20;67.90;;;27.96;48.47;100556.13;5072462;28;20040;-81
2022/07/20 07:16:59;;;;;;;25.38;14.88;;;27.20;66.90;;;28.01;49.00;100561.66;5054271;28;20421;-82
2022/07/20 07:19:26;;;;;;;22.35;13.60;;;27.20;67.30;;;28.00;49.98;100561.97;5071479;28;20076;-81
2022/07/20 07:21:54;;;;;;;24.83;14.27;;;27.20;68.20;;;27.72;50.01;100572.06;5072215;28;20040;-81
2022/07/20 07:24:22;;;;;;;27.77;15.95;;;27.20;68.10;;;27.47;50.37;100580.47;5071971;28;20049;-82
2022/07/20 07:26:49;;;;;;;25.60;14.40;;;27.10;68.10;;;27.35;51.81;100582.00;5072118;28;20501;-82
2022/07/20 07:29:16;;;;;;;24.65;14.38;;;27.00;68.90;;;27.37;52.68;100586.16;5071207;28;20040;-81
2022/07/20 07:31:43;;;;;;;21.33;14.77;;;27.00;69.70;;;27.48;52.21;100592.50;5071888;28;20045;-81
2022/07/20 07:34:10;;;;;;;21.63;14.25;;;27.00;70.30;;;27.60;51.56;100603.25;5071933;28;20676;-81
2022/07/20 07:36:38;;;;;;;23.02;13.63;;;27.00;69.90;;;27.71;52.72;100598.41;5072001;28;20486;-81
2022/07/20 07:39:06;;;;;;;24.75;14.32;;;27.00;70.50;;;27.69;52.23;100613.50;5071249;28;20547;-81
2022/07/20 07:41:33;;;;;;;21.73;14.80;;;27.00;70.10;;;27.71;51.11;100607.59;5071321;28;20123;-81
2022/07/20 07:44:01;;;;;;;21.88;13.02;;;27.00;70.00;;;27.84;50.97;100606.06;5071780;28;20094;-81
2022/07/20 07:46:28;;;;;;;25.17;16.27;;;27.00;69.50;;;28.01;49.48;100619.59;5071922;28;20072;-81
2022/07/20 07:48:55;;;;;;;25.17;14.15;;;27.00;69.40;;;28.05;49.78;100623.47;5071136;28;20051;-81
2022/07/20 07:51:22;;;;;;;33.75;15.40;;;27.00;69.40;;;28.04;50.34;100614.22;5071648;28;20123;-81
2022/07/20 07:53:49;;;;;;;26.40;16.13;;;27.00;69.90;;;28.09;50.58;100627.31;5071592;28;20517;-81
2022/07/20 07:56:18;;;;;;;27.15;15.95;;;27.10;69.60;;;28.05;50.32;100629.88;5071658;28;20493;-81
2022/07/20 07:58:45;;;;;;;28.83;17.48;;;27.10;69.60;;;28.03;49.84;100634.94;5070660;28;20067;-81
2022/07/20 08:01:12;;;;;;;23.08;15.93;;;27.20;68.90;;;28.10;50.48;100637.34;5071339;28;20048;-81
2022/07/20 08:03:40;;;;;;;25.33;16.40;;;27.20;69.60;;;28.15;49.62;100647.66;5071243;28;20568;-81
2022/07/20 08:06:07;;;;;;;25.15;15.77;;;27.20;68.50;;;28.24;50.36;100648.69;5068011;28;20041;-81
2022/07/20 08:08:34;;;;;;;25.52;16.45;;;27.20;69.40;;;28.20;50.58;100647.63;5070637;28;20416;-81
2022/07/20 08:11:02;;;;;;;29.77;17.10;;;27.20;69.80;;;28.07;50.36;100655.59;5071319;28;20048;-81
2022/07/20 08:13:31;;;;;;;22.23;17.02;;;27.20;69.30;;;28.00;48.50;100649.50;5071255;28;20496;-81
2022/07/20 08:15:58;;;;;;;24.73;17.75;;;27.20;67.60;;;28.11;48.26;100660.59;5071321;28;20063;-81
2022/07/20 08:18:26;;;;;;;26.90;17.58;;;27.20;68.10;;;28.05;49.47;100663.44;5070480;28;20567;-81
2022/07/20 08:20:53;;;;;;;28.98;17.70;;;27.20;68.70;;;28.14;49.45;100672.03;5071032;28;20044;-81
2022/07/20 08:23:20;;;;;;;28.67;18.25;;;27.20;68.80;;;28.25;49.64;100683.91;5071127;28;20044;-81
2022/07/20 08:25:47;;;;;;;24.25;16.90;;;27.30;69.50;;;28.34;49.75;100681.28;5070805;28;20094;-81
2022/07/20 08:28:17;;;;;;;25.75;17.35;;;27.30;69.70;;;28.38;51.33;100682.34;5070192;28;20768;-81
2022/07/20 08:30:48;;;;;;;25.38;17.70;;;27.30;71.20;;;28.36;51.08;100691.03;5070239;28;20124;-81
2022/07/20 08:33:16;;;;;;;26.83;19.67;;;27.30;70.40;;;28.16;49.71;100699.69;5070848;28;20076;-81
2022/07/20 08:35:43;;;;;;;26.92;19.63;;;27.30;68.70;;;27.93;49.06;100696.63;5070615;28;20044;-81
2022/07/20 08:38:11;;;;;;;28.00;18.30;;;27.30;67.70;;;27.77;50.12;100700.69;5070341;28;20058;-82
2022/07/20 08:40:39;;;;;;;26.42;18.38;;;27.30;68.50;;;27.58;50.62;100697.78;5069991;28;20075;-81
2022/07/20 08:43:07;;;;;;;26.83;19.42;;;27.20;69.10;;;27.52;51.10;100699.78;5070707;28;20050;-81
2022/07/20 08:45:35;;;;;;;22.35;18.02;;;27.10;69.10;;;27.55;50.53;100702.03;5070663;28;20041;-81
2022/07/20 08:48:08;;;;;;;31.90;20.55;;;27.10;68.80;;;27.64;51.28;100693.81;5070640;28;20059;-81
2022/07/20 08:50:36;;;;;;;24.67;19.30;;;27.10;70.00;;;27.63;51.84;100681.78;5052205;28;20554;-81
2022/07/20 08:53:04;;;;;;;28.58;19.40;;;27.10;70.30;;;27.65;51.38;100687.09;5069687;28;20051;-81
2022/07/20 08:55:32;;;;;;;28.08;19.25;;;27.10;70.00;;;27.75;52.94;100672.16;5070421;28;20382;-81
2022/07/20 08:57:59;;;;;;;28.80;19.00;;;27.10;72.10;;;27.82;51.41;100661.47;5070359;28;20044;-81
2022/07/20 09:00:27;;;;;;;25.10;17.33;;;27.20;70.40;;;27.91;52.81;100662.50;5069467;28;20119;-81
2022/07/20 09:02:57;;;;;;;29.92;19.73;;;27.10;72.10;;;27.93;53.37;100654.66;5070246;28;20116;-81
2022/07/20 09:05:28;;;;;;;30.90;17.65;;;27.20;72.80;;;28.00;54.14;100649.50;5069883;28;20051;-81
2022/07/20 09:07:58;;;;;;;26.75;19.20;;;27.20;72.50;;;28.04;52.69;100644.97;5070188;28;20055;-82
2022/07/20 09:10:27;;;;;;;23.48;17.58;;;27.30;71.90;;;28.08;51.73;100646.06;5069349;28;20072;-81
2022/07/20 09:13:01;;;;;;;25.02;17.02;;;27.40;70.30;;;28.20;55.37;100636.41;5070132;28;20063;-81
2022/07/20 09:15:36;;;;;;;26.98;17.73;;;27.40;73.60;;;28.26;52.93;100630.44;5070158;28;20059;-82
2022/07/20 09:18:16;;;;;;;27.60;17.73;;;27.50;71.90;;;28.28;53.69;100625.38;5070149;28;20467;-81
2022/07/20 09:20:47;;;;;;;28.73;19.07;;;27.50;72.00;;;28.29;51.82;100626.19;5069684;28;20127;-81
2022/07/20 09:23:17;;;;;;;22.98;14.60;;;27.60;70.70;;;28.30;52.63;100629.84;5070088;28;20052;-81
2022/07/20 09:25:56;;;;;;;23.67;17.63;;;27.60;70.50;;;28.30;50.06;100618.66;5069900;28;20040;-81
2022/07/20 09:28:34;;;;;;;30.27;17.65;;;27.60;69.00;;;28.29;49.18;100623.41;5069125;28;20048;-81
2022/07/20 09:31:01;;;;;;;24.38;15.65;;;27.60;67.30;;;28.33;51.00;100618.88;5069897;28;20576;-81
2022/07/20 09:33:31;;;;;;;21.17;13.80;;;27.70;69.10;;;28.37;50.29;100613.50;5070061;28;20052;-81
2022/07/20 09:36:05;;;;;;;21.92;13.63;;;27.70;68.60;;;28.37;51.55;100611.53;5069730;28;20036;-81
2022/07/20 09:38:37;;;;;;;22.85;14.60;;;27.70;69.50;;;28.43;50.87;100609.50;5068990;28;20068;-82
2022/07/20 09:41:10;;;;;;;22.65;13.85;;;27.70;68.90;;;28.40;49.89;100605.31;5069713;28;20098;-81
2022/07/20 09:43:37;;;;;;;23.15;14.45;;;27.70;68.00;;;28.46;50.20;100606.94;5069751;28;20040;-81
2022/07/20 09:46:14;;;;;;;21.38;14.43;;;27.80;68.40;;;28.54;47.15;100602.66;5069693;28;20474;-81
2022/07/20 09:48:44;;;;;;;24.13;12.98;;;27.90;66.00;;;28.50;45.41;100609.09;5069113;28;20420;-82
2022/07/20 09:51:29;;;;;;;18.42;12.30;;;27.80;63.10;;;28.53;49.41;100611.34;5069737;28;20143;-81
2022/07/20 09:53:59;;;;;;;24.33;13.48;;;27.80;67.00;;;28.53;46.45;100616.94;5069767;28;20137;-81
2022/07/20 09:56:27;;;;;;;16.77;11.02;;;27.80;64.40;;;28.58;46.80;100614.09;5069750;28;20047;-81
2022/07/20 09:58:57;;;;;;;15.77;10.50;;;27.80;64.80;;;28.55;46.24;100606.28;5068917;28;20485;-81
2022/07/20 10:01:27;;;;;;;18.77;11.37;;;27.80;63.90;;;28.54;45.06;100607.41;5069607;28;20116;-81
2022/07/20 10:03:58;;;;;;;18.80;10.75;;;27.80;62.30;;;28.50;44.72;100640.72;5069382;28;20040;-82
2022/07/20 10:06:29;;;;;;;18.38;11.85;;;27.90;62.20;;;28.40;46.01;100636.13;5073642;28;20040;-81
2022/07/20 10:08:57;;;;;;;18.33;11.45;;;27.80;63.40;;;28.34;47.66;100650.50;5072762;28;20467;-81
2022/07/20 10:11:26;;;;;;;25.83;13.00;;;27.80;64.90;;;28.28;47.61;100666.53;5073403;28;20394;-81
2022/07/20 10:13:57;;;;;;;19.35;12.20;;;27.80;64.80;;;28.31;49.08;100676.28;5072437;28;20076;-81
2022/07/20 10:16:34;;;;;;;20.38;11.73;;;27.80;66.30;;;28.35;49.48;100683.78;5071570;28;20045;-81